sensor_id;sensor_type;location;lat;lon;timestamp;pressure;altitude;pressure_sealevel;temperature;humidity
21129;BME280;10722;51.910;8.352;2023-06-24T00:02:17;101731.94;;;15.86;100.00
21129;BME280;10722;51.910;8.352;2023-06-24T00:05:03;101734.50;;;15.80;100.00
21129;BME280;10722;51.910;8.352;2023-06-24T00:07:48;101720.69;;;15.93;100.00
21129;BME280;10722;51.910;8.352;2023-06-24T00:10:34;101728.41;;;15.82;100.00
21129;BME280;10722;51.910;8.352;2023-06-24T00:13:19;101721.47;;;15.83;100.00
21129;BME280;10722;51.910;8.352;2023-06-24T00:16:05;101722.41;;;15.89;100.00
21129;BME280;10722;51.910;8.352;2023-06-24T00:18:50;101711.94;;;15.88;100.00
21129;BME280;10722;51.910;8.352;2023-06-24T00:21:36;101711.16;;;15.95;100.00
21129;BME280;10722;51.910;8.352;2023-06-24T00:24:21;101726.72;;;15.87;100.00
21129;BME280;10722;51.910;8.352;2023-06-24T00:27:07;101724.16;;;15.89;100.00
21129;BME280;10722;51.910;8.352;2023-06-24T00:29:52;101724.16;;;15.90;100.00
21129;BME280;10722;51.910;8.352;2023-06-24T00:32:38;101719.06;;;16.01;100.00
21129;BME280;10722;51.910;8.352;2023-06-24T00:35:23;101728.56;;;15.96;100.00
21129;BME280;10722;51.910;8.352;2023-06-24T00:38:09;101719.66;;;15.79;100.00
21129;BME280;10722;51.910;8.352;2023-06-24T00:40:54;101721.34;;;15.72;100.00
21129;BME280;10722;51.910;8.352;2023-06-24T00:43:40;101742.06;;;15.64;100.00
21129;BME280;10722;51.910;8.352;2023-06-24T00:46:26;101731.78;;;15.74;100.00
21129;BME280;10722;51.910;8.352;2023-06-24T00:49:11;101732.78;;;15.85;100.00
21129;BME280;10722;51.910;8.352;2023-06-24T00:51:57;101729.34;;;15.86;100.00
21129;BME280;10722;51.910;8.352;2023-06-24T00:54:43;101727.25;;;15.60;100.00
21129;BME280;10722;51.910;8.352;2023-06-24T00:57:29;101728.88;;;15.52;100.00
21129;BME280;10722;51.910;8.352;2023-06-24T01:00:15;101725.41;;;15.53;100.00
21129;BME280;10722;51.910;8.352;2023-06-24T01:03:03;101726.09;;;15.40;100.00
21129;BME280;10722;51.910;8.352;2023-06-24T01:05:48;101720.72;;;15.26;100.00
21129;BME280;10722;51.910;8.352;2023-06-24T01:08:34;101724.91;;;15.16;100.00
21129;BME280;10722;51.910;8.352;2023-06-24T01:11:19;101733.78;;;15.31;100.00
21129;BME280;10722;51.910;8.352;2023-06-24T01:14:04;101728.81;;;15.46;100.00
21129;BME280;10722;51.910;8.352;2023-06-24T01:17:00;101719.34;;;15.56;100.00
21129;BME280;10722;51.910;8.352;2023-06-24T01:20:01;101720.19;;;15.52;100.00
21129;BME280;10722;51.910;8.352;2023-06-24T01:23:10;101718.09;;;15.28;100.00
21129;BME280;10722;51.910;8.352;2023-06-24T01:26:14;101719.94;;;15.32;100.00
21129;BME280;10722;51.910;8.352;2023-06-24T01:32:44;101716.13;;;15.10;100.00
21129;BME280;10722;51.910;8.352;2023-06-24T01:35:35;101724.72;;;15.04;100.00
21129;BME280;10722;51.910;8.352;2023-06-24T01:38:33;101725.53;;;15.00;100.00
21129;BME280;10722;51.910;8.352;2023-06-24T01:41:24;101731.78;;;15.11;100.00
21129;BME280;10722;51.910;8.352;2023-06-24T01:44:13;101737.03;;;15.13;100.00
21129;BME280;10722;51.910;8.352;2023-06-24T01:46:59;101740.66;;;15.24;100.00
21129;BME280;10722;51.910;8.352;2023-06-24T01:49:47;101732.00;;;15.28;100.00
21129;BME280;10722;51.910;8.352;2023-06-24T01:52:34;101737.97;;;15.18;100.00
21129;BME280;10722;51.910;8.352;2023-06-24T01:55:21;101729.19;;;15.13;100.00
21129;BME280;10722;51.910;8.352;2023-06-24T01:58:07;101726.59;;;15.14;100.00
21129;BME280;10722;51.910;8.352;2023-06-24T02:00:52;101718.00;;;15.18;100.00
21129;BME280;10722;51.910;8.352;2023-06-24T02:03:39;101717.19;;;15.24;100.00
21129;BME280;10722;51.910;8.352;2023-06-24T02:06:28;101719.03;;;15.30;100.00
21129;BME280;10722;51.910;8.352;2023-06-24T02:09:15;101717.75;;;15.01;100.00
21129;BME280;10722;51.910;8.352;2023-06-24T02:12:02;101711.63;;;14.98;100.00
21129;BME280;10722;51.910;8.352;2023-06-24T02:14:48;101716.84;;;14.99;100.00
21129;BME280;10722;51.910;8.352;2023-06-24T02:17:34;101720.22;;;14.94;100.00
21129;BME280;10722;51.910;8.352;2023-06-24T02:20:20;101721.13;;;14.97;100.00
21129;BME280;10722;51.910;8.352;2023-06-24T02:23:07;101723.78;;;15.00;100.00
21129;BME280;10722;51.910;8.352;2023-06-24T02:25:53;101723.69;;;14.94;100.00
21129;BME280;10722;51.910;8.352;2023-06-24T02:28:40;101723.59;;;14.87;100.00
21129;BME280;10722;51.910;8.352;2023-06-24T02:31:26;101731.41;;;14.87;100.00
21129;BME280;10722;51.910;8.352;2023-06-24T02:34:11;101732.25;;;14.84;100.00
21129;BME280;10722;51.910;8.352;2023-06-24T02:36:57;101735.69;;;14.83;100.00
21129;BME280;10722;51.910;8.352;2023-06-24T02:39:42;101739.88;;;14.73;100.00
21129;BME280;10722;51.910;8.352;2023-06-24T02:42:27;101730.19;;;14.66;100.00
21129;BME280;10722;51.910;8.352;2023-06-24T02:45:12;101735.44;;;14.69;100.00
21129;BME280;10722;51.910;8.352;2023-06-24T02:47:59;101731.94;;;14.66;100.00
21129;BME280;10722;51.910;8.352;2023-06-24T02:50:45;101738.31;;;14.85;100.00
21129;BME280;10722;51.910;8.352;2023-06-24T02:53:31;101729.47;;;14.75;100.00
21129;BME280;10722;51.910;8.352;2023-06-24T02:56:17;101738.09;;;14.72;100.00
21129;BME280;10722;51.910;8.352;2023-06-24T02:59:02;101728.44;;;14.65;100.00
21129;BME280;10722;51.910;8.352;2023-06-24T03:01:49;101731.16;;;14.71;100.00
21129;BME280;10722;51.910;8.352;2023-06-24T03:04:35;101734.63;;;14.72;100.00
21129;BME280;10722;51.910;8.352;2023-06-24T03:07:20;101736.50;;;14.80;100.00
21129;BME280;10722;51.910;8.352;2023-06-24T03:10:06;101741.53;;;14.68;100.00
21129;BME280;10722;51.910;8.352;2023-06-24T03:12:52;101750.25;;;14.70;100.00
21129;BME280;10722;51.910;8.352;2023-06-24T03:15:37;101750.22;;;14.69;100.00
21129;BME280;10722;51.910;8.352;2023-06-24T03:18:23;101755.50;;;14.75;100.00
21129;BME280;10722;51.910;8.352;2023-06-24T03:21:09;101748.66;;;14.78;100.00
21129;BME280;10722;51.910;8.352;2023-06-24T03:23:54;101738.28;;;14.82;100.00
21129;BME280;10722;51.910;8.352;2023-06-24T03:26:40;101737.56;;;14.92;100.00
21129;BME280;10722;51.910;8.352;2023-06-24T03:29:25;101734.13;;;14.93;100.00
21129;BME280;10722;51.910;8.352;2023-06-24T03:32:10;101733.38;;;15.03;100.00
21129;BME280;10722;51.910;8.352;2023-06-24T03:34:55;101737.91;;;15.13;100.00
21129;BME280;10722;51.910;8.352;2023-06-24T03:37:41;101729.38;;;15.23;100.00
21129;BME280;10722;51.910;8.352;2023-06-24T03:40:26;101727.50;;;15.16;100.00
21129;BME280;10722;51.910;8.352;2023-06-24T03:43:12;101731.06;;;15.21;100.00
21129;BME280;10722;51.910;8.352;2023-06-24T03:45:57;101724.91;;;15.16;100.00
21129;BME280;10722;51.910;8.352;2023-06-24T03:48:43;101726.84;;;15.30;100.00
21129;BME280;10722;51.910;8.352;2023-06-24T03:51:28;101729.50;;;15.33;100.00
21129;BME280;10722;51.910;8.352;2023-06-24T03:54:13;101728.47;;;15.23;100.00
21129;BME280;10722;51.910;8.352;2023-06-24T03:56:59;101735.50;;;15.27;100.00
21129;BME280;10722;51.910;8.352;2023-06-24T03:59:44;101730.44;;;15.39;100.00
21129;BME280;10722;51.910;8.352;2023-06-24T04:02:29;101728.69;;;15.38;100.00
21129;BME280;10722;51.910;8.352;2023-06-24T04:05:15;101734.91;;;15.48;100.00
21129;BME280;10722;51.910;8.352;2023-06-24T04:08:01;101735.84;;;15.52;100.00
21129;BME280;10722;51.910;8.352;2023-06-24T04:10:46;101736.91;;;15.67;100.00
21129;BME280;10722;51.910;8.352;2023-06-24T04:13:32;101742.94;;;15.63;100.00
21129;BME280;10722;51.910;8.352;2023-06-24T04:16:20;101739.34;;;15.57;100.00
21129;BME280;10722;51.910;8.352;2023-06-24T04:19:05;101728.84;;;15.51;100.00
21129;BME280;10722;51.910;8.352;2023-06-24T04:21:50;101727.28;;;15.63;100.00
21129;BME280;10722;51.910;8.352;2023-06-24T04:24:36;101722.97;;;15.67;100.00
21129;BME280;10722;51.910;8.352;2023-06-24T04:27:21;101724.81;;;15.73;100.00
21129;BME280;10722;51.910;8.352;2023-06-24T04:30:07;101719.78;;;15.88;100.00
21129;BME280;10722;51.910;8.352;2023-06-24T04:32:55;101723.34;;;15.95;100.00
21129;BME280;10722;51.910;8.352;2023-06-24T04:35:40;101713.91;;;16.07;100.00
21129;BME280;10722;51.910;8.352;2023-06-24T04:38:26;101715.59;;;16.02;100.00
21129;BME280;10722;51.910;8.352;2023-06-24T04:41:12;101716.56;;;16.12;100.00
21129;BME280;10722;51.910;8.352;2023-06-24T04:43:57;101707.00;;;16.12;100.00
21129;BME280;10722;51.910;8.352;2023-06-24T04:46:43;101721.13;;;16.33;100.00
21129;BME280;10722;51.910;8.352;2023-06-24T04:49:28;101721.88;;;16.21;100.00
21129;BME280;10722;51.910;8.352;2023-06-24T04:52:14;101721.00;;;16.21;100.00
21129;BME280;10722;51.910;8.352;2023-06-24T04:54:59;101728.06;;;16.28;100.00
21129;BME280;10722;51.910;8.352;2023-06-24T04:57:44;101732.28;;;16.18;100.00
21129;BME280;10722;51.910;8.352;2023-06-24T05:00:29;101729.78;;;16.26;100.00
21129;BME280;10722;51.910;8.352;2023-06-24T05:03:15;101733.38;;;16.37;100.00
21129;BME280;10722;51.910;8.352;2023-06-24T05:06:00;101732.66;;;16.56;100.00
21129;BME280;10722;51.910;8.352;2023-06-24T05:08:45;101728.41;;;16.65;100.00
21129;BME280;10722;51.910;8.352;2023-06-24T05:11:31;101723.16;;;16.65;100.00
21129;BME280;10722;51.910;8.352;2023-06-24T05:14:16;101727.66;;;16.79;100.00
21129;BME280;10722;51.910;8.352;2023-06-24T05:17:02;101729.47;;;16.85;100.00
21129;BME280;10722;51.910;8.352;2023-06-24T05:19:48;101723.34;;;16.85;100.00
21129;BME280;10722;51.910;8.352;2023-06-24T05:22:33;101713.84;;;16.96;100.00
21129;BME280;10722;51.910;8.352;2023-06-24T05:25:18;101712.97;;;16.92;100.00
21129;BME280;10722;51.910;8.352;2023-06-24T05:28:03;101705.94;;;16.88;100.00
21129;BME280;10722;51.910;8.352;2023-06-24T05:30:49;101717.28;;;16.87;100.00
21129;BME280;10722;51.910;8.352;2023-06-24T05:33:34;101725.25;;;17.09;100.00
21129;BME280;10722;51.910;8.352;2023-06-24T05:36:19;101720.97;;;17.23;100.00
21129;BME280;10722;51.910;8.352;2023-06-24T05:39:08;101710.59;;;17.29;100.00
21129;BME280;10722;51.910;8.352;2023-06-24T05:41:58;101706.22;;;17.27;100.00
21129;BME280;10722;51.910;8.352;2023-06-24T05:44:44;101713.25;;;17.38;100.00
21129;BME280;10722;51.910;8.352;2023-06-24T05:47:30;101713.31;;;17.52;100.00
21129;BME280;10722;51.910;8.352;2023-06-24T05:50:15;101702.88;;;17.60;100.00
21129;BME280;10722;51.910;8.352;2023-06-24T05:53:00;101697.75;;;17.90;100.00
21129;BME280;10722;51.910;8.352;2023-06-24T05:55:46;101690.81;;;17.91;100.00
21129;BME280;10722;51.910;8.352;2023-06-24T05:58:31;101691.63;;;17.81;100.00
21129;BME280;10722;51.910;8.352;2023-06-24T06:01:16;101711.66;;;17.76;100.00
21129;BME280;10722;51.910;8.352;2023-06-24T06:04:02;101707.41;;;18.05;100.00
21129;BME280;10722;51.910;8.352;2023-06-24T06:06:47;101692.59;;;18.29;99.72
21129;BME280;10722;51.910;8.352;2023-06-24T06:09:33;101683.88;;;18.44;98.14
21129;BME280;10722;51.910;8.352;2023-06-24T06:12:18;101679.50;;;18.41;97.19
21129;BME280;10722;51.910;8.352;2023-06-24T06:15:04;101691.75;;;18.62;97.14
21129;BME280;10722;51.910;8.352;2023-06-24T06:17:52;101676.91;;;18.70;95.46
21129;BME280;10722;51.910;8.352;2023-06-24T06:20:37;101687.38;;;18.52;95.70
21129;BME280;10722;51.910;8.352;2023-06-24T06:23:22;101684.75;;;18.69;95.05
21129;BME280;10722;51.910;8.352;2023-06-24T06:26:08;101678.59;;;19.00;94.46
21129;BME280;10722;51.910;8.352;2023-06-24T06:28:53;101682.97;;;19.15;93.72
21129;BME280;10722;51.910;8.352;2023-06-24T06:31:38;101669.84;;;19.15;92.83
21129;BME280;10722;51.910;8.352;2023-06-24T06:34:25;101669.81;;;19.27;91.98
21129;BME280;10722;51.910;8.352;2023-06-24T06:37:10;101663.63;;;19.42;90.29
21129;BME280;10722;51.910;8.352;2023-06-24T06:39:55;101659.19;;;19.60;89.62
21129;BME280;10722;51.910;8.352;2023-06-24T06:42:41;101647.75;;;19.73;89.32
21129;BME280;10722;51.910;8.352;2023-06-24T06:45:26;101662.63;;;19.73;88.95
21129;BME280;10722;51.910;8.352;2023-06-24T06:48:13;101642.38;;;19.95;87.31
21129;BME280;10722;51.910;8.352;2023-06-24T06:51:00;101648.41;;;20.07;87.05
21129;BME280;10722;51.910;8.352;2023-06-24T06:53:46;101640.44;;;20.23;86.43
21129;BME280;10722;51.910;8.352;2023-06-24T06:56:31;101640.25;;;20.44;85.61
21129;BME280;10722;51.910;8.352;2023-06-24T06:59:16;101656.25;;;20.17;86.54
21129;BME280;10722;51.910;8.352;2023-06-24T07:02:02;101635.00;;;20.44;84.30
21129;BME280;10722;51.910;8.352;2023-06-24T07:04:47;101620.13;;;20.40;83.75
21129;BME280;10722;51.910;8.352;2023-06-24T07:07:33;101611.38;;;20.38;82.53
21129;BME280;10722;51.910;8.352;2023-06-24T07:10:18;101657.75;;;20.45;84.11
21129;BME280;10722;51.910;8.352;2023-06-24T07:13:03;101650.53;;;20.73;83.82
21129;BME280;10722;51.910;8.352;2023-06-24T07:15:49;101615.16;;;21.00;81.44
21129;BME280;10722;51.910;8.352;2023-06-24T07:18:34;101621.97;;;21.17;81.14
21129;BME280;10722;51.910;8.352;2023-06-24T07:21:19;101638.81;;;21.03;82.21
21129;BME280;10722;51.910;8.352;2023-06-24T07:24:05;101643.66;;;21.40;81.69
21129;BME280;10722;51.910;8.352;2023-06-24T07:26:50;101615.25;;;21.65;80.61
21129;BME280;10722;51.910;8.352;2023-06-24T07:29:35;101592.38;;;21.69;78.81
21129;BME280;10722;51.910;8.352;2023-06-24T07:32:21;101588.09;;;21.60;78.01
21129;BME280;10722;51.910;8.352;2023-06-24T07:35:06;101592.47;;;21.63;78.10
21129;BME280;10722;51.910;8.352;2023-06-24T07:37:52;101596.66;;;21.75;77.68
21129;BME280;10722;51.910;8.352;2023-06-24T07:40:37;101600.56;;;21.47;77.76
21129;BME280;10722;51.910;8.352;2023-06-24T07:43:22;101647.31;;;21.25;79.76
21129;BME280;10722;51.910;8.352;2023-06-24T07:46:08;101627.75;;;21.49;78.72
21129;BME280;10722;51.910;8.352;2023-06-24T07:48:53;101622.00;;;21.83;78.29
21129;BME280;10722;51.910;8.352;2023-06-24T07:51:39;101606.56;;;22.14;76.63
21129;BME280;10722;51.910;8.352;2023-06-24T07:54:24;101584.19;;;22.42;75.12
21129;BME280;10722;51.910;8.352;2023-06-24T07:57:10;101577.03;;;22.47;74.38
21129;BME280;10722;51.910;8.352;2023-06-24T07:59:55;101600.44;;;22.65;75.10
21129;BME280;10722;51.910;8.352;2023-06-24T08:02:41;101587.56;;;22.95;74.09
21129;BME280;10722;51.910;8.352;2023-06-24T08:05:29;101586.91;;;22.83;73.70
21129;BME280;10722;51.910;8.352;2023-06-24T08:08:15;101617.13;;;22.67;74.72
21129;BME280;10722;51.910;8.352;2023-06-24T08:11:00;101631.00;;;22.77;74.80
21129;BME280;10722;51.910;8.352;2023-06-24T08:13:46;101627.94;;;23.00;74.20
21129;BME280;10722;51.910;8.352;2023-06-24T08:16:31;101636.34;;;23.20;74.63
21129;BME280;10722;51.910;8.352;2023-06-24T08:19:16;101619.41;;;23.31;73.36
21129;BME280;10722;51.910;8.352;2023-06-24T08:22:02;101589.97;;;23.49;70.71
21129;BME280;10722;51.910;8.352;2023-06-24T08:24:47;101589.41;;;23.33;70.70
21129;BME280;10722;51.910;8.352;2023-06-24T08:27:33;101599.50;;;23.14;70.41
21129;BME280;10722;51.910;8.352;2023-06-24T08:30:18;101567.38;;;23.36;68.35
21129;BME280;10722;51.910;8.352;2023-06-24T08:33:04;101588.91;;;23.17;69.38
21129;BME280;10722;51.910;8.352;2023-06-24T08:35:49;101595.16;;;23.52;69.05
21129;BME280;10722;51.910;8.352;2023-06-24T08:38:34;101589.81;;;23.94;68.83
21129;BME280;10722;51.910;8.352;2023-06-24T08:41:20;101571.75;;;24.11;67.42
21129;BME280;10722;51.910;8.352;2023-06-24T08:44:05;101575.38;;;24.07;67.74
21129;BME280;10722;51.910;8.352;2023-06-24T08:46:50;101589.81;;;23.55;68.82
21129;BME280;10722;51.910;8.352;2023-06-24T08:49:52;101570.19;;;24.38;66.78
21129;BME280;10722;51.910;8.352;2023-06-24T08:52:42;101547.00;;;24.81;64.67
21129;BME280;10722;51.910;8.352;2023-06-24T08:55:30;101557.97;;;23.99;66.42
21129;BME280;10722;51.910;8.352;2023-06-24T08:58:17;101594.84;;;24.05;68.69
21129;BME280;10722;51.910;8.352;2023-06-24T09:01:03;101570.16;;;25.04;66.59
21129;BME280;10722;51.910;8.352;2023-06-24T09:03:48;101553.31;;;25.07;65.12
21129;BME280;10722;51.910;8.352;2023-06-24T09:06:33;101580.03;;;24.97;66.74
21129;BME280;10722;51.910;8.352;2023-06-24T09:09:20;101527.94;;;24.35;64.66
21129;BME280;10722;51.910;8.352;2023-06-24T09:12:10;101574.66;;;24.01;67.13
21129;BME280;10722;51.910;8.352;2023-06-24T09:14:59;101552.94;;;25.48;64.89
21129;BME280;10722;51.910;8.352;2023-06-24T09:17:45;101542.78;;;26.16;63.50
21129;BME280;10722;51.910;8.352;2023-06-24T09:20:32;101506.94;;;26.29;61.42
21129;BME280;10722;51.910;8.352;2023-06-24T09:23:17;101491.78;;;26.81;60.65
21129;BME280;10722;51.910;8.352;2023-06-24T09:26:03;101504.91;;;27.08;60.77
21129;BME280;10722;51.910;8.352;2023-06-24T09:28:48;101459.13;;;26.07;58.41
21129;BME280;10722;51.910;8.352;2023-06-24T09:31:34;101515.41;;;24.44;62.75
21129;BME280;10722;51.910;8.352;2023-06-24T09:34:19;101550.84;;;25.58;62.92
21129;BME280;10722;51.910;8.352;2023-06-24T09:37:05;101503.19;;;25.30;61.73
21129;BME280;10722;51.910;8.352;2023-06-24T09:39:50;101543.94;;;25.54;63.50
21129;BME280;10722;51.910;8.352;2023-06-24T09:42:35;101543.25;;;25.47;63.66
21129;BME280;10722;51.910;8.352;2023-06-24T09:45:24;101497.44;;;25.44;61.64
21129;BME280;10722;51.910;8.352;2023-06-24T09:48:10;101523.19;;;25.67;62.21
21129;BME280;10722;51.910;8.352;2023-06-24T09:50:59;101582.00;;;24.25;66.88
21129;BME280;10722;51.910;8.352;2023-06-24T09:53:44;101582.34;;;25.96;65.42
21129;BME280;10722;51.910;8.352;2023-06-24T09:56:30;101525.88;;;26.44;62.13
21129;BME280;10722;51.910;8.352;2023-06-24T09:59:18;101507.16;;;26.23;61.80
21129;BME280;10722;51.910;8.352;2023-06-24T10:02:06;101499.59;;;25.59;62.08
21129;BME280;10722;51.910;8.352;2023-06-24T10:04:56;101501.22;;;25.63;62.19
21129;BME280;10722;51.910;8.352;2023-06-24T10:07:43;101509.59;;;26.54;61.53
21129;BME280;10722;51.910;8.352;2023-06-24T10:10:27;101472.91;;;26.66;59.67
21129;BME280;10722;51.910;8.352;2023-06-24T10:13:13;101454.53;;;26.61;58.66
21129;BME280;10722;51.910;8.352;2023-06-24T10:15:58;101441.44;;;25.28;59.25
21129;BME280;10722;51.910;8.352;2023-06-24T10:18:44;101440.63;;;24.37;60.24
21129;BME280;10722;51.910;8.352;2023-06-24T10:21:52;101432.38;;;24.79;59.18
21129;BME280;10722;51.910;8.352;2023-06-24T10:24:39;101449.66;;;24.91;60.04
21129;BME280;10722;51.910;8.352;2023-06-24T10:27:25;101484.16;;;25.45;61.22
21129;BME280;10722;51.910;8.352;2023-06-24T10:30:17;101419.75;;;26.20;56.89
21129;BME280;10722;51.910;8.352;2023-06-24T10:33:03;101434.94;;;25.91;58.43
21129;BME280;10722;51.910;8.352;2023-06-24T10:35:48;101431.75;;;24.71;59.11
21129;BME280;10722;51.910;8.352;2023-06-24T10:38:33;101456.81;;;24.57;60.42
21129;BME280;10722;51.910;8.352;2023-06-24T10:41:19;101473.00;;;25.36;61.01
21129;BME280;10722;51.910;8.352;2023-06-24T10:44:14;101394.78;;;26.02;56.10
21129;BME280;10722;51.910;8.352;2023-06-24T10:47:00;101427.38;;;26.29;57.91
21129;BME280;10722;51.910;8.352;2023-06-24T10:49:46;101461.19;;;26.48;59.55
21129;BME280;10722;51.910;8.352;2023-06-24T10:52:31;101439.72;;;27.01;57.39
21129;BME280;10722;51.910;8.352;2023-06-24T10:55:17;101382.91;;;26.12;55.88
21129;BME280;10722;51.910;8.352;2023-06-24T10:58:10;101421.09;;;25.30;58.57
21129;BME280;10722;51.910;8.352;2023-06-24T11:01:06;101388.69;;;25.22;56.92
21129;BME280;10722;51.910;8.352;2023-06-24T11:03:52;101387.44;;;25.59;57.04
21129;BME280;10722;51.910;8.352;2023-06-24T11:06:37;101441.28;;;25.59;59.56
21129;BME280;10722;51.910;8.352;2023-06-24T11:09:22;101421.47;;;25.46;58.39
21129;BME280;10722;51.910;8.352;2023-06-24T11:12:10;101410.94;;;26.20;57.41
21129;BME280;10722;51.910;8.352;2023-06-24T11:15:00;101427.78;;;28.16;56.92
21129;BME280;10722;51.910;8.352;2023-06-24T11:17:50;101336.22;;;27.42;52.65
21129;BME280;10722;51.910;8.352;2023-06-24T11:20:38;101379.66;;;27.61;54.49
21129;BME280;10722;51.910;8.352;2023-06-24T11:23:24;101322.78;;;27.24;52.11
21129;BME280;10722;51.910;8.352;2023-06-24T11:26:09;101335.16;;;27.03;52.81
21129;BME280;10722;51.910;8.352;2023-06-24T11:28:55;101296.03;;;25.96;51.93
21129;BME280;10722;51.910;8.352;2023-06-24T11:31:41;101339.53;;;26.60;52.92
21129;BME280;10722;51.910;8.352;2023-06-24T11:34:26;101363.19;;;27.11;53.71
21129;BME280;10722;51.910;8.352;2023-06-24T11:37:14;101397.34;;;26.98;55.97
21129;BME280;10722;51.910;8.352;2023-06-24T11:40:09;101331.41;;;26.87;53.15
21129;BME280;10722;51.910;8.352;2023-06-24T11:42:54;101363.72;;;27.20;53.62
21129;BME280;10722;51.910;8.352;2023-06-24T11:45:40;101348.41;;;28.26;52.30
21129;BME280;10722;51.910;8.352;2023-06-24T11:48:42;101335.66;;;27.95;48.62
21129;BME280;10722;51.910;8.352;2023-06-24T11:51:28;101298.56;;;26.90;51.78
21129;BME280;10722;51.910;8.352;2023-06-24T11:54:16;101379.81;;;27.99;54.13
21129;BME280;10722;51.910;8.352;2023-06-24T11:57:02;101353.03;;;27.83;53.27
21129;BME280;10722;51.910;8.352;2023-06-24T11:59:51;101365.38;;;28.05;53.31
21129;BME280;10722;51.910;8.352;2023-06-24T12:02:37;101334.63;;;27.58;52.89
21129;BME280;10722;51.910;8.352;2023-06-24T12:05:33;101350.00;;;26.42;55.07
21129;BME280;10722;51.910;8.352;2023-06-24T12:08:19;101387.03;;;26.45;56.24
21129;BME280;10722;51.910;8.352;2023-06-24T12:11:04;101297.34;;;26.31;51.49
21129;BME280;10722;51.910;8.352;2023-06-24T12:13:50;101355.84;;;27.80;52.92
21129;BME280;10722;51.910;8.352;2023-06-24T12:16:35;101325.72;;;26.52;53.42
21129;BME280;10722;51.910;8.352;2023-06-24T12:19:20;101370.47;;;27.48;54.97
21129;BME280;10722;51.910;8.352;2023-06-24T12:22:11;101335.91;;;28.66;52.09
21129;BME280;10722;51.910;8.352;2023-06-24T12:24:58;101275.56;;;28.29;49.20
21129;BME280;10722;51.910;8.352;2023-06-24T12:27:44;101283.78;;;26.62;51.31
21129;BME280;10722;51.910;8.352;2023-06-24T12:30:30;101340.34;;;27.07;53.24
21129;BME280;10722;51.910;8.352;2023-06-24T12:33:15;101349.00;;;26.90;54.05
21129;BME280;10722;51.910;8.352;2023-06-24T12:36:01;101328.31;;;26.54;53.86
21129;BME280;10722;51.910;8.352;2023-06-24T12:38:46;101293.81;;;26.98;51.85
21129;BME280;10722;51.910;8.352;2023-06-24T12:41:31;101306.41;;;26.93;52.39
21129;BME280;10722;51.910;8.352;2023-06-24T12:44:17;101298.16;;;26.78;52.79
21129;BME280;10722;51.910;8.352;2023-06-24T12:47:02;101359.19;;;27.00;55.77
21129;BME280;10722;51.910;8.352;2023-06-24T12:49:49;101354.72;;;28.44;54.50
21129;BME280;10722;51.910;8.352;2023-06-24T12:52:34;101331.94;;;28.75;52.54
21129;BME280;10722;51.910;8.352;2023-06-24T12:55:20;101286.72;;;29.27;49.75
21129;BME280;10722;51.910;8.352;2023-06-24T12:58:05;101277.00;;;29.09;49.77
21129;BME280;10722;51.910;8.352;2023-06-24T13:00:52;101284.31;;;28.69;49.99
21129;BME280;10722;51.910;8.352;2023-06-24T13:03:39;101298.78;;;28.63;51.08
21129;BME280;10722;51.910;8.352;2023-06-24T13:06:24;101281.03;;;28.64;50.45
21129;BME280;10722;51.910;8.352;2023-06-24T13:09:09;101277.72;;;28.58;50.17
21129;BME280;10722;51.910;8.352;2023-06-24T13:11:55;101302.41;;;28.79;51.03
21129;BME280;10722;51.910;8.352;2023-06-24T13:14:40;101286.69;;;28.75;49.95
21129;BME280;10722;51.910;8.352;2023-06-24T13:17:25;101267.13;;;29.11;48.62
21129;BME280;10722;51.910;8.352;2023-06-24T13:20:11;101289.28;;;29.97;48.53
21129;BME280;10722;51.910;8.352;2023-06-24T13:22:56;101259.97;;;29.63;48.33
21129;BME280;10722;51.910;8.352;2023-06-24T13:25:42;101265.22;;;29.81;48.57
21129;BME280;10722;51.910;8.352;2023-06-24T13:28:27;101245.00;;;28.91;48.10
21129;BME280;10722;51.910;8.352;2023-06-24T13:31:13;101291.72;;;28.98;49.88
21129;BME280;10722;51.910;8.352;2023-06-24T13:34:01;101321.16;;;28.78;51.81
21129;BME280;10722;51.910;8.352;2023-06-24T13:36:46;101314.56;;;28.85;51.38
21129;BME280;10722;51.910;8.352;2023-06-24T13:39:31;101355.69;;;28.60;54.60
21129;BME280;10722;51.910;8.352;2023-06-24T13:42:17;101330.91;;;28.77;52.83
21129;BME280;10722;51.910;8.352;2023-06-24T13:45:03;101331.81;;;28.78;52.79
21129;BME280;10722;51.910;8.352;2023-06-24T13:47:48;101296.28;;;28.77;51.17
21129;BME280;10722;51.910;8.352;2023-06-24T13:50:34;101345.19;;;28.57;54.98
21129;BME280;10722;51.910;8.352;2023-06-24T13:53:20;101285.59;;;28.43;51.14
21129;BME280;10722;51.910;8.352;2023-06-24T13:56:05;101307.91;;;27.82;53.14
21129;BME280;10722;51.910;8.352;2023-06-24T13:58:51;101275.88;;;28.04;51.15
21129;BME280;10722;51.910;8.352;2023-06-24T14:01:37;101279.75;;;27.57;51.43
21129;BME280;10722;51.910;8.352;2023-06-24T14:04:22;101328.06;;;27.04;54.25
21129;BME280;10722;51.910;8.352;2023-06-24T14:07:08;101319.09;;;27.07;54.13
21129;BME280;10722;51.910;8.352;2023-06-24T14:09:53;101342.03;;;26.87;55.77
21129;BME280;10722;51.910;8.352;2023-06-24T14:12:39;101337.53;;;26.67;55.21
21129;BME280;10722;51.910;8.352;2023-06-24T14:15:24;101342.66;;;26.48;56.20
21129;BME280;10722;51.910;8.352;2023-06-24T14:18:09;101339.50;;;26.62;55.56
21129;BME280;10722;51.910;8.352;2023-06-24T14:20:55;101316.34;;;26.88;54.30
21129;BME280;10722;51.910;8.352;2023-06-24T14:23:40;101350.28;;;26.57;56.32
21129;BME280;10722;51.910;8.352;2023-06-24T14:26:26;101333.84;;;26.92;55.46
21129;BME280;10722;51.910;8.352;2023-06-24T14:29:13;101360.75;;;27.48;56.53